createdAt,value
2023-01-30T00:01:47.641Z,98.80
2023-01-30T00:04:17.556Z,98.80
2023-01-30T00:06:48.736Z,98.80
2023-01-30T00:09:17.225Z,98.80
2023-01-30T00:11:45.629Z,98.70
2023-01-30T00:14:17.468Z,98.80
2023-01-30T00:16:47.373Z,98.80
2023-01-30T00:19:17.331Z,98.80
2023-01-30T00:21:45.844Z,98.80
2023-01-30T00:24:14.381Z,98.80
2023-01-30T00:26:42.806Z,98.70
2023-01-30T00:29:11.169Z,98.80
2023-01-30T00:31:41.037Z,98.80
2023-01-30T00:34:11.229Z,98.80
2023-01-30T00:36:40.827Z,98.80
2023-01-30T00:39:09.281Z,98.70
2023-01-30T00:41:51.140Z,98.70
2023-01-30T00:44:38.486Z,98.80
2023-01-30T00:47:07.190Z,99.20
2023-01-30T00:49:37.202Z,98.70
2023-01-30T00:52:08.057Z,98.80
2023-01-30T00:54:38.400Z,98.80
2023-01-30T00:57:12.337Z,98.80
2023-01-30T00:59:40.867Z,98.80
2023-01-30T01:02:11.206Z,98.70
2023-01-30T01:04:43.622Z,98.80
2023-01-30T01:07:14.521Z,98.80
2023-01-30T01:09:43.028Z,98.80
2023-01-30T01:12:11.321Z,98.70
2023-01-30T01:14:39.667Z,98.70
2023-01-30T01:17:08.132Z,98.80
2023-01-30T01:19:40.522Z,98.70
2023-01-30T01:22:08.950Z,98.80
2023-01-30T01:24:38.650Z,98.90
2023-01-30T01:27:07.124Z,98.80
2023-01-30T01:29:42.679Z,98.80
2023-01-30T01:32:11.498Z,98.80
2023-01-30T01:34:42.006Z,98.70
2023-01-30T01:37:11.371Z,98.70
2023-01-30T01:39:58.578Z,98.80
2023-01-30T01:42:31.333Z,98.90
2023-01-30T01:45:04.884Z,98.80
2023-01-30T01:47:36.550Z,98.80
2023-01-30T01:50:20.193Z,98.80
2023-01-30T01:52:52.238Z,99.00
2023-01-30T01:55:25.247Z,98.90
2023-01-30T01:58:01.796Z,99.00
2023-01-30T02:00:30.678Z,99.00
2023-01-30T02:03:01.615Z,98.90
2023-01-30T02:05:37.309Z,98.90
2023-01-30T02:08:08.407Z,99.00
2023-01-30T02:10:55.857Z,98.90
2023-01-30T02:13:40.444Z,99.00
2023-01-30T02:16:13.668Z,98.90
2023-01-30T02:18:46.929Z,99.10
2023-01-30T02:21:44.288Z,99.00
2023-01-30T02:24:33.339Z,99.00
2023-01-30T02:27:19.896Z,99.00
2023-01-30T02:30:22.818Z,99.10
2023-01-30T02:33:05.249Z,99.10
2023-01-30T02:35:50.274Z,99.10
2023-01-30T02:38:30.892Z,99.00
2023-01-30T02:41:12.610Z,99.20
2023-01-30T02:43:54.128Z,99.10
2023-01-30T02:46:30.435Z,99.40
2023-01-30T02:49:07.647Z,99.00
2023-01-30T02:51:40.274Z,99.00
2023-01-30T02:54:08.867Z,99.10
2023-01-30T02:56:51.531Z,99.00
2023-01-30T02:59:24.877Z,99.10
2023-01-30T03:02:23.385Z,99.10
2023-01-30T03:05:13.832Z,99.10
2023-01-30T03:07:50.815Z,99.10
2023-01-30T03:10:31.316Z,99.00
2023-01-30T03:13:10.768Z,99.10
2023-01-30T03:15:44.709Z,99.00
2023-01-30T03:18:13.157Z,99.10
2023-01-30T03:20:45.333Z,99.40
2023-01-30T03:23:19.652Z,99.10
2023-01-30T03:25:56.213Z,99.10
2023-01-30T03:28:51.743Z,99.10
2023-01-30T03:31:20.059Z,99.10
2023-01-30T03:33:48.404Z,99.10
2023-01-30T03:36:24.803Z,99.10
2023-01-30T03:38:53.284Z,99.10
2023-01-30T03:41:23.867Z,99.10
2023-01-30T03:43:54.889Z,99.10
2023-01-30T03:46:24.316Z,99.10
2023-01-30T03:48:54.393Z,99.10
2023-01-30T03:51:24.667Z,99.20
2023-01-30T03:53:58.832Z,99.20
2023-01-30T03:56:27.342Z,99.20
2023-01-30T03:59:03.543Z,99.20
2023-01-30T04:01:31.904Z,99.30
2023-01-30T04:04:05.191Z,99.20
2023-01-30T04:06:39.020Z,99.20
2023-01-30T04:09:09.220Z,99.30
2023-01-30T04:11:39.505Z,99.20
2023-01-30T04:14:09.708Z,99.30
2023-01-30T04:16:40.861Z,99.20
2023-01-30T04:19:09.250Z,99.20
2023-01-30T04:21:41.196Z,99.20
2023-01-30T04:24:10.375Z,99.20
2023-01-30T04:26:42.458Z,99.20
2023-01-30T04:29:18.430Z,99.20
2023-01-30T04:31:50.483Z,99.20
2023-01-30T04:34:32.488Z,99.30
2023-01-30T04:37:02.500Z,99.40
2023-01-30T04:39:33.048Z,99.30
2023-01-30T04:42:04.179Z,99.40
2023-01-30T04:44:44.782Z,99.30
2023-01-30T04:47:14.641Z,99.50
2023-01-30T04:49:57.998Z,99.50
2023-01-30T04:52:30.421Z,99.50
2023-01-30T04:55:01.303Z,99.60
2023-01-30T04:57:29.679Z,99.70
2023-01-30T04:59:57.982Z,99.70
2023-01-30T05:02:26.330Z,99.60
2023-01-30T05:04:54.502Z,99.60
2023-01-30T05:07:23.944Z,99.60
2023-01-30T05:09:56.550Z,99.60
2023-01-30T05:12:26.672Z,99.60
2023-01-30T05:14:56.924Z,99.60
2023-01-30T05:17:27.033Z,99.60
2023-01-30T05:19:58.009Z,99.60
2023-01-30T05:22:26.458Z,99.50
2023-01-30T05:24:59.240Z,99.60
2023-01-30T05:27:29.280Z,99.50
2023-01-30T05:30:04.210Z,99.70
2023-01-30T05:32:50.319Z,99.60
2023-01-30T05:35:22.750Z,99.60
2023-01-30T05:37:52.085Z,99.60
2023-01-30T05:40:28.224Z,99.60
2023-01-30T05:42:58.263Z,99.60
2023-01-30T05:45:26.798Z,99.60
2023-01-30T05:48:00.601Z,99.70
2023-01-30T05:50:29.634Z,99.70
2023-01-30T05:53:02.121Z,99.70
2023-01-30T05:55:39.009Z,99.80
2023-01-30T05:58:09.806Z,99.90
2023-01-30T06:00:40.446Z,99.80
2023-01-30T06:03:11.449Z,99.80
2023-01-30T06:05:40.272Z,99.80
2023-01-30T06:08:09.031Z,99.90
2023-01-30T06:10:40.472Z,99.80
2023-01-30T06:13:11.903Z,99.90
2023-01-30T06:15:40.441Z,99.90
2023-01-30T06:18:13.663Z,99.90
2023-01-30T06:20:49.614Z,99.90
2023-01-30T06:23:20.760Z,99.90
2023-01-30T06:25:52.005Z,99.90
2023-01-30T06:28:23.278Z,99.90
2023-01-30T06:30:56.612Z,99.90
2023-01-30T06:33:25.041Z,99.90
2023-01-30T06:35:55.261Z,99.90
2023-01-30T06:38:24.328Z,99.90
2023-01-30T06:40:55.149Z,99.90
2023-01-30T06:43:27.053Z,99.90
2023-01-30T06:45:56.486Z,99.90
2023-01-30T06:48:28.457Z,99.90
2023-01-30T06:50:56.586Z,99.90
2023-01-30T06:53:30.343Z,99.90
2023-01-30T06:56:01.185Z,99.90
2023-01-30T06:58:29.992Z,99.90
2023-01-30T07:00:58.756Z,99.90
2023-01-30T07:03:27.263Z,99.90
2023-01-30T07:05:57.843Z,99.90
2023-01-30T07:08:27.259Z,99.90
2023-01-30T07:10:58.994Z,99.90
2023-01-30T07:13:30.453Z,99.90
2023-01-30T07:15:58.599Z,99.90
2023-01-30T07:18:38.043Z,99.90
2023-01-30T07:21:06.614Z,99.90
2023-01-30T07:23:34.665Z,99.90
2023-01-30T07:26:05.509Z,99.90
2023-01-30T07:28:35.491Z,99.90
2023-01-30T07:31:05.582Z,99.90
2023-01-30T07:33:33.842Z,99.90
2023-01-30T07:36:02.290Z,99.90
2023-01-30T07:38:32.686Z,99.90
2023-01-30T07:41:01.026Z,99.90
2023-01-30T07:43:31.315Z,99.90
2023-01-30T07:46:02.858Z,99.90
2023-01-30T07:48:31.012Z,99.90
2023-01-30T07:50:59.379Z,99.90
2023-01-30T07:53:27.754Z,99.90
2023-01-30T07:55:56.223Z,99.90
2023-01-30T07:58:24.713Z,99.90
2023-01-30T08:00:57.100Z,99.90
2023-01-30T08:03:26.795Z,99.90
2023-01-30T08:05:55.246Z,99.90
2023-01-30T08:08:23.789Z,99.90
2023-01-30T08:10:52.074Z,99.90
2023-01-30T08:13:20.619Z,99.90
2023-01-30T08:15:50.406Z,99.90
2023-01-30T08:18:18.894Z,99.90
2023-01-30T08:20:48.878Z,99.90
2023-01-30T08:23:17.396Z,99.90
2023-01-30T08:25:46.022Z,99.90
2023-01-30T08:28:18.758Z,99.90
2023-01-30T08:30:50.494Z,99.90
2023-01-30T08:33:20.718Z,99.90
2023-01-30T08:35:51.594Z,99.90
2023-01-30T08:38:23.604Z,99.90
2023-01-30T08:40:51.905Z,99.90
2023-01-30T08:43:19.960Z,99.90
2023-01-30T08:45:48.708Z,99.90
2023-01-30T08:48:19.839Z,99.90
2023-01-30T08:51:04.657Z,99.90
2023-01-30T08:53:32.876Z,99.90
2023-01-30T08:56:06.084Z,99.90
2023-01-30T08:58:34.404Z,99.90
2023-01-30T09:01:24.838Z,99.90
2023-01-30T09:03:53.206Z,99.90
2023-01-30T09:06:26.019Z,99.90
2023-01-30T09:08:54.335Z,99.90
2023-01-30T09:11:33.881Z,99.90
2023-01-30T09:14:13.293Z,99.90
2023-01-30T09:16:58.992Z,99.90
2023-01-30T09:19:39.700Z,99.90
2023-01-30T09:22:09.623Z,99.90
2023-01-30T09:24:38.059Z,99.90
2023-01-30T09:27:06.365Z,99.90
2023-01-30T09:29:34.647Z,99.90
2023-01-30T09:32:02.634Z,99.90
2023-01-30T09:34:30.665Z,99.90
2023-01-30T09:37:00.253Z,99.90
2023-01-30T09:39:30.684Z,99.90
2023-01-30T09:42:15.998Z,99.90
2023-01-30T09:45:16.915Z,99.90
2023-01-30T09:47:54.085Z,99.90
2023-01-30T09:50:43.976Z,99.90
2023-01-30T09:53:19.605Z,99.90
2023-01-30T09:55:49.843Z,99.90
2023-01-30T09:58:20.345Z,99.90
2023-01-30T10:00:50.618Z,99.90
2023-01-30T10:03:29.678Z,99.90
2023-01-30T10:06:02.805Z,99.90
2023-01-30T10:08:50.267Z,99.90
2023-01-30T10:11:36.120Z,99.90
2023-01-30T10:14:21.631Z,99.90
2023-01-30T10:17:01.364Z,99.90
2023-01-30T10:19:54.071Z,99.90
2023-01-30T10:22:37.482Z,99.90
2023-01-30T10:25:21.847Z,99.90
2023-01-30T10:27:55.485Z,99.90
2023-01-30T10:30:24.566Z,99.90
2023-01-30T10:33:01.530Z,99.90
2023-01-30T10:35:35.137Z,99.90
2023-01-30T10:38:12.640Z,99.90
2023-01-30T10:40:47.551Z,99.90
2023-01-30T10:43:23.949Z,99.90
2023-01-30T10:46:03.790Z,99.90
2023-01-30T10:48:59.149Z,99.90
2023-01-30T10:51:44.127Z,99.90
2023-01-30T10:54:19.832Z,99.90
2023-01-30T10:56:56.047Z,99.90
2023-01-30T10:59:41.028Z,99.90
2023-01-30T11:02:22.137Z,99.90
2023-01-30T11:04:57.531Z,99.90
2023-01-30T11:07:26.139Z,99.90
2023-01-30T11:09:54.405Z,99.90
2023-01-30T11:12:23.210Z,99.90
2023-01-30T11:14:54.818Z,99.90
2023-01-30T11:17:29.803Z,99.90
2023-01-30T11:20:02.450Z,99.90
2023-01-30T11:22:34.409Z,99.90
2023-01-30T11:25:08.897Z,99.90
2023-01-30T11:27:37.281Z,99.90
2023-01-30T11:30:16.077Z,99.90
2023-01-30T11:32:45.304Z,99.90
2023-01-30T11:35:26.082Z,99.90
2023-01-30T11:37:54.711Z,99.90
2023-01-30T11:40:31.294Z,99.90
2023-01-30T11:43:05.720Z,99.90
2023-01-30T11:45:43.139Z,99.90
2023-01-30T11:48:33.238Z,99.90
2023-01-30T11:51:10.445Z,99.90
2023-01-30T11:53:43.075Z,99.90
2023-01-30T11:56:18.537Z,99.90
2023-01-30T11:59:12.765Z,99.90
2023-01-30T12:01:51.331Z,99.90
2023-01-30T12:04:38.221Z,99.90
2023-01-30T12:07:10.035Z,99.90
2023-01-30T12:13:08.505Z,99.90
2023-01-30T12:16:16.117Z,99.90
2023-01-30T12:19:29.452Z,99.90
2023-01-30T12:22:41.008Z,99.90
2023-01-30T12:25:38.306Z,99.90
2023-01-30T12:28:25.423Z,99.90
2023-01-30T12:31:43.012Z,99.90
2023-01-30T12:34:24.400Z,99.90
2023-01-30T12:38:19.283Z,99.90
2023-01-30T12:45:11.139Z,99.90
2023-01-30T12:48:44.349Z,99.90
2023-01-30T12:55:39.243Z,99.90
2023-01-30T12:58:57.265Z,99.90
2023-01-30T13:05:39.170Z,99.90
2023-01-30T13:15:04.386Z,99.90
2023-01-30T13:18:33.675Z,99.90
2023-01-30T13:25:16.195Z,99.90
2023-01-30T13:28:19.198Z,99.90
2023-01-30T13:35:40.759Z,99.90
2023-01-30T13:41:27.769Z,99.90
2023-01-30T13:44:28.826Z,99.90
2023-01-30T13:47:58.442Z,99.90
2023-01-30T13:51:45.386Z,99.90
2023-01-30T13:58:07.156Z,99.90
2023-01-30T14:01:02.412Z,99.90
2023-01-30T14:18:08.007Z,99.90
2023-01-30T14:21:12.093Z,99.90
2023-01-30T14:27:54.161Z,99.90
2023-01-30T14:31:37.298Z,99.90
2023-01-30T14:38:56.283Z,99.90
2023-01-30T14:42:25.253Z,99.90
2023-01-30T14:53:49.580Z,99.90
2023-01-30T14:56:16.230Z,99.90
2023-01-30T14:59:59.717Z,99.90
2023-01-30T15:03:32.457Z,99.90
2023-01-30T15:07:10.864Z,99.90
2023-01-30T15:09:58.838Z,99.90
2023-01-30T15:14:00.106Z,99.90
2023-01-30T15:16:36.162Z,99.90
2023-01-30T15:23:02.960Z,99.90
2023-01-30T15:26:14.319Z,99.90
2023-01-30T15:29:11.036Z,99.90
2023-01-30T15:35:32.582Z,99.90
2023-01-30T15:39:00.680Z,99.90
2023-01-30T15:42:12.224Z,99.90
2023-01-30T15:45:37.393Z,99.90
2023-01-30T15:48:48.821Z,99.90
2023-01-30T15:51:57.341Z,99.90
2023-01-30T15:57:29.412Z,99.90
2023-01-30T16:00:29.780Z,99.90
2023-01-30T16:03:32.382Z,99.90
2023-01-30T16:06:19.846Z,99.90
2023-01-30T16:09:09.694Z,99.90
2023-01-30T16:12:20.849Z,99.90
2023-01-30T16:15:53.910Z,99.90
2023-01-30T16:18:49.548Z,99.90
2023-01-30T16:22:19.421Z,99.90
2023-01-30T16:24:58.745Z,99.90
2023-01-30T16:27:53.209Z,99.90
2023-01-30T16:31:21.319Z,99.90
2023-01-30T16:34:08.892Z,99.90
2023-01-30T16:37:11.263Z,99.90
2023-01-30T16:40:26.535Z,99.90
2023-01-30T16:43:24.574Z,99.90
2023-01-30T16:46:57.665Z,99.90
2023-01-30T16:50:02.243Z,99.90
2023-01-30T16:53:12.380Z,99.90
2023-01-30T16:55:51.440Z,99.90
2023-01-30T16:58:25.452Z,99.90
2023-01-30T17:04:44.126Z,99.90
2023-01-30T17:08:03.637Z,99.90
2023-01-30T17:45:55.102Z,99.90
2023-01-30T17:47:50.981Z,99.90
2023-01-30T17:50:58.213Z,99.90
2023-01-30T17:55:18.450Z,99.90
2023-01-30T17:57:56.044Z,99.90
2023-01-30T18:04:34.459Z,99.90
2023-01-30T18:07:36.935Z,99.90
2023-01-30T18:10:14.314Z,99.90
2023-01-30T18:13:11.972Z,99.90
2023-01-30T18:19:36.179Z,99.90
2023-01-30T18:22:32.568Z,99.90
2023-01-30T18:25:08.778Z,99.90
2023-01-30T18:27:44.190Z,99.90
2023-01-30T18:30:18.405Z,99.90
2023-01-30T18:33:10.780Z,99.90
2023-01-30T18:35:42.356Z,99.90
2023-01-30T18:38:14.897Z,99.90
2023-01-30T18:40:48.648Z,99.90
2023-01-30T18:43:30.117Z,99.90
2023-01-30T18:46:06.960Z,99.90
2023-01-30T18:48:35.751Z,99.90
2023-01-30T18:51:12.064Z,99.90
2023-01-30T18:53:44.423Z,99.90
2023-01-30T18:56:14.340Z,99.90
2023-01-30T18:58:44.916Z,99.90
2023-01-30T19:01:19.649Z,99.90
2023-01-30T19:03:48.070Z,99.90
2023-01-30T19:06:40.231Z,99.90
2023-01-30T19:09:21.538Z,99.90
2023-01-30T19:12:10.175Z,99.90
2023-01-30T19:15:05.323Z,99.90
2023-01-30T19:17:37.486Z,99.90
2023-01-30T19:20:11.096Z,99.90
2023-01-30T19:22:59.942Z,99.90
2023-01-30T19:28:49.510Z,99.90
2023-01-30T19:31:42.424Z,99.90
2023-01-30T19:35:09.353Z,99.90
2023-01-30T19:38:37.606Z,99.90
2023-01-30T19:41:07.513Z,99.90
2023-01-30T19:44:22.785Z,99.90
2023-01-30T19:47:08.989Z,99.90
2023-01-30T19:50:03.810Z,99.90
2023-01-30T19:52:54.227Z,99.90
2023-01-30T19:55:36.291Z,99.90
2023-01-30T20:02:17.383Z,99.90
2023-01-30T20:05:16.606Z,99.90
2023-01-30T20:11:54.103Z,99.90
2023-01-30T20:15:00.349Z,99.90
2023-01-30T20:19:32.603Z,99.90
2023-01-30T20:25:14.763Z,99.90
2023-01-30T20:28:34.076Z,99.90
2023-01-30T20:33:33.315Z,99.90
2023-01-30T20:38:38.046Z,99.90
2023-01-30T20:41:22.727Z,99.90
2023-01-30T20:44:40.051Z,99.90
2023-01-30T20:47:43.605Z,99.90
2023-01-30T20:51:33.105Z,99.90
2023-01-30T20:54:14.727Z,99.90
2023-01-30T20:58:03.860Z,99.90
2023-01-30T21:00:28.125Z,99.90
2023-01-30T21:06:08.851Z,99.90
2023-01-30T21:09:48.892Z,99.90
2023-01-30T21:11:58.879Z,99.90
2023-01-30T21:14:56.321Z,99.90
2023-01-30T21:17:48.813Z,99.90
2023-01-30T21:21:31.210Z,99.90
2023-01-30T21:25:25.439Z,99.90
2023-01-30T21:27:59.293Z,99.90
2023-01-30T21:31:21.734Z,99.90
2023-01-30T21:34:29.017Z,99.90
2023-01-30T21:37:31.510Z,99.90
2023-01-30T21:40:43.997Z,99.90
2023-01-30T21:44:11.517Z,99.90
2023-01-30T21:47:06.007Z,99.90
2023-01-30T21:49:48.755Z,99.90
2023-01-30T21:52:44.431Z,99.90
2023-01-30T21:55:22.215Z,99.90
2023-01-30T21:57:54.110Z,99.90
2023-01-30T22:00:28.921Z,99.90
2023-01-30T22:02:59.969Z,99.90
2023-01-30T22:05:48.182Z,99.90
2023-01-30T22:08:18.355Z,99.90
2023-01-30T22:10:56.536Z,99.90
2023-01-30T22:13:31.418Z,99.90
2023-01-30T22:16:04.940Z,99.90
2023-01-30T22:18:35.259Z,99.90
2023-01-30T22:21:11.672Z,99.90
2023-01-30T22:23:50.167Z,99.90
2023-01-30T22:26:35.058Z,99.90
2023-01-30T22:29:07.159Z,99.90
2023-01-30T22:31:57.399Z,99.90
2023-01-30T22:34:26.127Z,99.90
2023-01-30T22:37:04.787Z,99.90
2023-01-30T22:39:39.466Z,99.90
2023-01-30T22:42:24.364Z,99.90
2023-01-30T22:44:58.089Z,99.90
2023-01-30T22:47:28.670Z,99.90
2023-01-30T22:49:57.261Z,99.90
2023-01-30T22:52:29.661Z,99.90
2023-01-30T22:55:11.827Z,99.90
2023-01-30T22:57:42.761Z,99.90
2023-01-30T23:00:21.576Z,99.90
2023-01-30T23:02:59.336Z,99.90
2023-01-30T23:05:39.227Z,99.90
2023-01-30T23:08:30.049Z,99.90
2023-01-30T23:11:14.715Z,99.90
2023-01-30T23:13:46.507Z,99.90
2023-01-30T23:16:32.548Z,99.90
2023-01-30T23:19:08.407Z,99.90
2023-01-30T23:21:41.364Z,99.90
2023-01-30T23:24:19.721Z,99.90
2023-01-30T23:26:55.465Z,99.90
2023-01-30T23:29:36.530Z,99.90
2023-01-30T23:32:16.321Z,99.90
2023-01-30T23:35:22.918Z,99.90
2023-01-30T23:38:20.236Z,99.90
2023-01-30T23:41:11.064Z,99.90
2023-01-30T23:44:03.606Z,99.90
2023-01-30T23:46:39.161Z,99.90
2023-01-30T23:49:13.739Z,99.90
2023-01-30T23:51:46.842Z,99.90
2023-01-30T23:54:23.439Z,99.90
2023-01-30T23:56:59.760Z,99.90
2023-01-30T23:59:33.911Z,99.90
